sensor_id;sensor_type;location;lat;lon;timestamp;P1;durP1;ratioP1;P2;durP2;ratioP2
10497;SDS011;5296;51.060;13.750;2024-01-06T00:04:26;11.10;;;8.20;;
10497;SDS011;5296;51.060;13.750;2024-01-06T00:09:28;10.40;;;7.50;;
10497;SDS011;5296;51.060;13.750;2024-01-06T00:14:30;12.73;;;9.23;;
10497;SDS011;5296;51.060;13.750;2024-01-06T00:19:31;10.02;;;7.75;;
10497;SDS011;5296;51.060;13.750;2024-01-06T00:24:33;12.95;;;9.30;;
10497;SDS011;5296;51.060;13.750;2024-01-06T00:29:35;15.05;;;10.48;;
10497;SDS011;5296;51.060;13.750;2024-01-06T00:34:36;15.73;;;10.77;;
10497;SDS011;5296;51.060;13.750;2024-01-06T00:39:39;14.50;;;10.70;;
10497;SDS011;5296;51.060;13.750;2024-01-06T00:44:40;14.68;;;10.93;;
10497;SDS011;5296;51.060;13.750;2024-01-06T00:49:42;14.32;;;11.45;;
10497;SDS011;5296;51.060;13.750;2024-01-06T00:54:44;15.02;;;11.20;;
10497;SDS011;5296;51.060;13.750;2024-01-06T00:59:46;13.57;;;10.40;;
10497;SDS011;5296;51.060;13.750;2024-01-06T01:04:47;13.82;;;9.10;;
10497;SDS011;5296;51.060;13.750;2024-01-06T01:09:49;13.98;;;9.25;;
10497;SDS011;5296;51.060;13.750;2024-01-06T01:14:51;13.23;;;9.85;;
10497;SDS011;5296;51.060;13.750;2024-01-06T01:19:53;14.03;;;9.27;;
10497;SDS011;5296;51.060;13.750;2024-01-06T01:24:55;15.80;;;10.30;;
10497;SDS011;5296;51.060;13.750;2024-01-06T01:29:57;14.32;;;11.20;;
10497;SDS011;5296;51.060;13.750;2024-01-06T01:34:58;17.40;;;12.57;;
10497;SDS011;5296;51.060;13.750;2024-01-06T01:40:00;15.32;;;11.70;;
10497;SDS011;5296;51.060;13.750;2024-01-06T01:45:02;17.45;;;12.55;;
10497;SDS011;5296;51.060;13.750;2024-01-06T01:50:04;15.05;;;12.13;;
10497;SDS011;5296;51.060;13.750;2024-01-06T01:55:06;16.93;;;11.23;;
10497;SDS011;5296;51.060;13.750;2024-01-06T02:00:08;20.23;;;12.60;;
10497;SDS011;5296;51.060;13.750;2024-01-06T02:05:13;18.98;;;12.43;;
10497;SDS011;5296;51.060;13.750;2024-01-06T02:10:15;16.53;;;12.33;;
10497;SDS011;5296;51.060;13.750;2024-01-06T02:15:18;19.23;;;12.57;;
10497;SDS011;5296;51.060;13.750;2024-01-06T02:20:20;18.05;;;12.52;;
10497;SDS011;5296;51.060;13.750;2024-01-06T02:25:25;16.70;;;12.77;;
10497;SDS011;5296;51.060;13.750;2024-01-06T02:30:27;15.82;;;11.68;;
10497;SDS011;5296;51.060;13.750;2024-01-06T02:35:29;17.37;;;12.20;;
10497;SDS011;5296;51.060;13.750;2024-01-06T02:40:30;17.37;;;12.77;;
10497;SDS011;5296;51.060;13.750;2024-01-06T02:45:33;16.50;;;11.60;;
10497;SDS011;5296;51.060;13.750;2024-01-06T02:50:35;18.05;;;11.75;;
10497;SDS011;5296;51.060;13.750;2024-01-06T02:55:36;18.23;;;11.55;;
10497;SDS011;5296;51.060;13.750;2024-01-06T03:00:38;19.52;;;12.73;;
10497;SDS011;5296;51.060;13.750;2024-01-06T03:05:40;17.80;;;12.43;;
10497;SDS011;5296;51.060;13.750;2024-01-06T03:10:41;16.07;;;12.07;;
10497;SDS011;5296;51.060;13.750;2024-01-06T03:15:43;15.60;;;11.30;;
10497;SDS011;5296;51.060;13.750;2024-01-06T03:20:45;19.55;;;11.30;;
10497;SDS011;5296;51.060;13.750;2024-01-06T03:25:46;14.63;;;11.13;;
10497;SDS011;5296;51.060;13.750;2024-01-06T03:30:49;14.68;;;10.25;;
10497;SDS011;5296;51.060;13.750;2024-01-06T03:35:50;12.90;;;9.60;;
10497;SDS011;5296;51.060;13.750;2024-01-06T03:40:52;13.80;;;9.33;;
10497;SDS011;5296;51.060;13.750;2024-01-06T03:45:54;11.07;;;8.20;;
10497;SDS011;5296;51.060;13.750;2024-01-06T03:50:57;12.23;;;9.40;;
10497;SDS011;5296;51.060;13.750;2024-01-06T03:56:00;10.67;;;7.53;;
10497;SDS011;5296;51.060;13.750;2024-01-06T04:01:02;11.50;;;7.90;;
10497;SDS011;5296;51.060;13.750;2024-01-06T04:06:04;11.43;;;8.30;;
10497;SDS011;5296;51.060;13.750;2024-01-06T04:11:06;11.63;;;8.47;;
10497;SDS011;5296;51.060;13.750;2024-01-06T04:16:07;10.68;;;7.82;;
10497;SDS011;5296;51.060;13.750;2024-01-06T04:21:09;13.63;;;8.57;;
10497;SDS011;5296;51.060;13.750;2024-01-06T04:26:12;11.23;;;8.27;;
10497;SDS011;5296;51.060;13.750;2024-01-06T04:31:14;11.40;;;8.03;;
10497;SDS011;5296;51.060;13.750;2024-01-06T04:36:16;11.67;;;8.47;;
10497;SDS011;5296;51.060;13.750;2024-01-06T04:41:17;11.50;;;8.67;;
10497;SDS011;5296;51.060;13.750;2024-01-06T04:46:19;14.50;;;9.00;;
10497;SDS011;5296;51.060;13.750;2024-01-06T04:51:21;15.33;;;9.77;;
10497;SDS011;5296;51.060;13.750;2024-01-06T04:56:23;13.97;;;9.17;;
10497;SDS011;5296;51.060;13.750;2024-01-06T05:01:24;12.47;;;9.17;;
10497;SDS011;5296;51.060;13.750;2024-01-06T05:06:26;12.97;;;9.63;;
10497;SDS011;5296;51.060;13.750;2024-01-06T05:11:28;13.50;;;9.63;;
10497;SDS011;5296;51.060;13.750;2024-01-06T05:16:30;13.03;;;8.53;;
10497;SDS011;5296;51.060;13.750;2024-01-06T05:21:31;12.70;;;9.03;;
10497;SDS011;5296;51.060;13.750;2024-01-06T05:26:33;11.97;;;8.50;;
10497;SDS011;5296;51.060;13.750;2024-01-06T05:31:35;12.47;;;9.70;;
10497;SDS011;5296;51.060;13.750;2024-01-06T05:36:37;12.00;;;9.13;;
10497;SDS011;5296;51.060;13.750;2024-01-06T05:41:39;13.27;;;9.30;;
10497;SDS011;5296;51.060;13.750;2024-01-06T05:46:41;12.00;;;8.73;;
10497;SDS011;5296;51.060;13.750;2024-01-06T05:51:45;14.43;;;10.00;;
10497;SDS011;5296;51.060;13.750;2024-01-06T05:56:48;13.43;;;10.27;;
10497;SDS011;5296;51.060;13.750;2024-01-06T06:01:49;14.17;;;9.70;;
10497;SDS011;5296;51.060;13.750;2024-01-06T06:06:51;10.40;;;8.70;;
10497;SDS011;5296;51.060;13.750;2024-01-06T06:11:53;12.77;;;10.03;;
10497;SDS011;5296;51.060;13.750;2024-01-06T06:16:54;13.43;;;10.07;;
10497;SDS011;5296;51.060;13.750;2024-01-06T06:21:56;13.80;;;10.30;;
10497;SDS011;5296;51.060;13.750;2024-01-06T06:26:58;13.90;;;10.37;;
10497;SDS011;5296;51.060;13.750;2024-01-06T06:31:59;12.93;;;10.60;;
10497;SDS011;5296;51.060;13.750;2024-01-06T06:37:01;17.27;;;11.07;;
10497;SDS011;5296;51.060;13.750;2024-01-06T06:42:03;17.43;;;12.80;;
10497;SDS011;5296;51.060;13.750;2024-01-06T06:47:05;15.47;;;11.80;;
10497;SDS011;5296;51.060;13.750;2024-01-06T06:52:07;16.30;;;12.10;;
10497;SDS011;5296;51.060;13.750;2024-01-06T06:57:09;19.03;;;13.03;;
10497;SDS011;5296;51.060;13.750;2024-01-06T07:02:10;21.33;;;13.93;;
10497;SDS011;5296;51.060;13.750;2024-01-06T07:07:12;19.27;;;13.73;;
10497;SDS011;5296;51.060;13.750;2024-01-06T07:12:14;22.40;;;14.63;;
10497;SDS011;5296;51.060;13.750;2024-01-06T07:17:16;22.83;;;15.20;;
10497;SDS011;5296;51.060;13.750;2024-01-06T07:22:17;21.73;;;14.70;;
10497;SDS011;5296;51.060;13.750;2024-01-06T07:27:19;22.17;;;14.75;;
10497;SDS011;5296;51.060;13.750;2024-01-06T07:32:22;22.83;;;14.83;;
10497;SDS011;5296;51.060;13.750;2024-01-06T07:37:24;23.77;;;15.82;;
10497;SDS011;5296;51.060;13.750;2024-01-06T07:42:27;22.63;;;14.73;;
10497;SDS011;5296;51.060;13.750;2024-01-06T07:47:28;25.20;;;15.87;;
10497;SDS011;5296;51.060;13.750;2024-01-06T07:52:30;24.33;;;15.23;;
10497;SDS011;5296;51.060;13.750;2024-01-06T07:57:32;25.00;;;15.83;;
10497;SDS011;5296;51.060;13.750;2024-01-06T08:02:34;21.73;;;13.80;;
10497;SDS011;5296;51.060;13.750;2024-01-06T08:07:35;22.07;;;15.10;;
10497;SDS011;5296;51.060;13.750;2024-01-06T08:12:38;23.53;;;15.23;;
10497;SDS011;5296;51.060;13.750;2024-01-06T08:17:40;26.33;;;16.77;;
10497;SDS011;5296;51.060;13.750;2024-01-06T08:22:44;23.20;;;15.00;;
10497;SDS011;5296;51.060;13.750;2024-01-06T08:27:46;25.83;;;15.15;;
10497;SDS011;5296;51.060;13.750;2024-01-06T08:32:48;25.90;;;16.03;;
10497;SDS011;5296;51.060;13.750;2024-01-06T08:37:49;26.80;;;16.23;;
10497;SDS011;5296;51.060;13.750;2024-01-06T08:42:51;25.80;;;16.43;;
10497;SDS011;5296;51.060;13.750;2024-01-06T08:47:53;26.77;;;15.15;;
10497;SDS011;5296;51.060;13.750;2024-01-06T08:52:55;25.83;;;15.57;;
10497;SDS011;5296;51.060;13.750;2024-01-06T08:57:57;23.80;;;15.30;;
10497;SDS011;5296;51.060;13.750;2024-01-06T09:02:58;24.07;;;15.90;;
10497;SDS011;5296;51.060;13.750;2024-01-06T09:08:01;23.33;;;16.30;;
10497;SDS011;5296;51.060;13.750;2024-01-06T09:13:03;25.07;;;16.57;;
10497;SDS011;5296;51.060;13.750;2024-01-06T09:18:06;28.73;;;17.08;;
10497;SDS011;5296;51.060;13.750;2024-01-06T09:23:08;23.07;;;15.00;;
10497;SDS011;5296;51.060;13.750;2024-01-06T09:28:10;23.63;;;15.33;;
10497;SDS011;5296;51.060;13.750;2024-01-06T09:33:12;23.97;;;16.40;;
10497;SDS011;5296;51.060;13.750;2024-01-06T09:38:19;23.50;;;15.07;;
10497;SDS011;5296;51.060;13.750;2024-01-06T09:43:21;25.55;;;15.85;;
10497;SDS011;5296;51.060;13.750;2024-01-06T09:48:23;23.03;;;15.80;;
10497;SDS011;5296;51.060;13.750;2024-01-06T09:53:34;23.95;;;16.08;;
10497;SDS011;5296;51.060;13.750;2024-01-06T09:58:39;20.55;;;15.30;;
10497;SDS011;5296;51.060;13.750;2024-01-06T10:03:41;22.57;;;15.77;;
10497;SDS011;5296;51.060;13.750;2024-01-06T10:08:50;19.77;;;14.80;;
10497;SDS011;5296;51.060;13.750;2024-01-06T10:13:53;21.35;;;15.02;;
10497;SDS011;5296;51.060;13.750;2024-01-06T10:18:57;25.52;;;16.02;;
10497;SDS011;5296;51.060;13.750;2024-01-06T10:24:00;23.00;;;16.33;;
10497;SDS011;5296;51.060;13.750;2024-01-06T10:29:01;21.88;;;15.95;;
10497;SDS011;5296;51.060;13.750;2024-01-06T10:34:05;21.55;;;15.80;;
10497;SDS011;5296;51.060;13.750;2024-01-06T10:39:07;21.00;;;16.05;;
10497;SDS011;5296;51.060;13.750;2024-01-06T10:44:10;22.43;;;15.10;;
10497;SDS011;5296;51.060;13.750;2024-01-06T10:49:12;20.65;;;14.10;;
10497;SDS011;5296;51.060;13.750;2024-01-06T10:54:15;22.55;;;14.75;;
10497;SDS011;5296;51.060;13.750;2024-01-06T10:59:17;19.25;;;14.35;;
10497;SDS011;5296;51.060;13.750;2024-01-06T11:04:20;20.73;;;15.13;;
10497;SDS011;5296;51.060;13.750;2024-01-06T11:09:27;19.98;;;15.70;;
10497;SDS011;5296;51.060;13.750;2024-01-06T11:14:36;18.75;;;14.32;;
10497;SDS011;5296;51.060;13.750;2024-01-06T11:24:43;18.98;;;14.23;;
10497;SDS011;5296;51.060;13.750;2024-01-06T11:29:50;20.63;;;14.27;;
10497;SDS011;5296;51.060;13.750;2024-01-06T11:34:53;19.08;;;13.82;;
10497;SDS011;5296;51.060;13.750;2024-01-06T11:39:57;21.33;;;14.25;;
10497;SDS011;5296;51.060;13.750;2024-01-06T11:45:02;19.40;;;14.15;;
10497;SDS011;5296;51.060;13.750;2024-01-06T11:50:05;22.15;;;16.13;;
10497;SDS011;5296;51.060;13.750;2024-01-06T11:55:07;24.00;;;17.30;;
10497;SDS011;5296;51.060;13.750;2024-01-06T12:00:12;28.17;;;17.80;;
10497;SDS011;5296;51.060;13.750;2024-01-06T12:05:16;21.42;;;15.95;;
10497;SDS011;5296;51.060;13.750;2024-01-06T12:10:20;23.80;;;15.18;;
10497;SDS011;5296;51.060;13.750;2024-01-06T12:15:25;21.52;;;16.30;;
10497;SDS011;5296;51.060;13.750;2024-01-06T12:20:27;23.00;;;16.52;;
10497;SDS011;5296;51.060;13.750;2024-01-06T12:25:30;19.25;;;14.95;;
10497;SDS011;5296;51.060;13.750;2024-01-06T12:30:38;21.77;;;15.80;;
10497;SDS011;5296;51.060;13.750;2024-01-06T12:35:42;19.38;;;14.85;;
10497;SDS011;5296;51.060;13.750;2024-01-06T12:40:45;21.13;;;15.40;;
10497;SDS011;5296;51.060;13.750;2024-01-06T12:45:47;17.20;;;13.23;;
10497;SDS011;5296;51.060;13.750;2024-01-06T12:50:50;13.80;;;11.10;;
10497;SDS011;5296;51.060;13.750;2024-01-06T12:55:52;15.30;;;10.98;;
10497;SDS011;5296;51.060;13.750;2024-01-06T13:00:53;14.35;;;11.70;;
10497;SDS011;5296;51.060;13.750;2024-01-06T13:05:55;14.32;;;10.63;;
10497;SDS011;5296;51.060;13.750;2024-01-06T13:10:57;14.90;;;12.48;;
10497;SDS011;5296;51.060;13.750;2024-01-06T13:15:59;17.20;;;12.57;;
10497;SDS011;5296;51.060;13.750;2024-01-06T13:21:04;15.23;;;12.43;;
10497;SDS011;5296;51.060;13.750;2024-01-06T13:26:06;16.52;;;13.55;;
10497;SDS011;5296;51.060;13.750;2024-01-06T13:31:09;20.85;;;15.95;;
10497;SDS011;5296;51.060;13.750;2024-01-06T13:36:11;18.42;;;13.07;;
10497;SDS011;5296;51.060;13.750;2024-01-06T13:41:13;18.57;;;13.57;;
10497;SDS011;5296;51.060;13.750;2024-01-06T13:46:15;18.85;;;13.88;;
10497;SDS011;5296;51.060;13.750;2024-01-06T13:51:17;20.57;;;13.73;;
10497;SDS011;5296;51.060;13.750;2024-01-06T13:56:19;21.88;;;14.95;;
10497;SDS011;5296;51.060;13.750;2024-01-06T14:01:20;16.95;;;12.95;;
10497;SDS011;5296;51.060;13.750;2024-01-06T14:06:25;20.08;;;14.80;;
10497;SDS011;5296;51.060;13.750;2024-01-06T14:11:31;22.98;;;15.95;;
10497;SDS011;5296;51.060;13.750;2024-01-06T14:16:32;21.42;;;15.43;;
10497;SDS011;5296;51.060;13.750;2024-01-06T14:21:34;25.42;;;16.67;;
10497;SDS011;5296;51.060;13.750;2024-01-06T14:26:36;25.23;;;18.08;;
10497;SDS011;5296;51.060;13.750;2024-01-06T14:31:38;29.45;;;19.13;;
10497;SDS011;5296;51.060;13.750;2024-01-06T14:36:39;26.52;;;17.15;;
10497;SDS011;5296;51.060;13.750;2024-01-06T14:41:48;28.77;;;19.13;;
10497;SDS011;5296;51.060;13.750;2024-01-06T14:46:50;31.20;;;20.47;;
10497;SDS011;5296;51.060;13.750;2024-01-06T14:51:53;29.57;;;18.77;;
10497;SDS011;5296;51.060;13.750;2024-01-06T14:56:54;35.25;;;20.95;;
10497;SDS011;5296;51.060;13.750;2024-01-06T15:01:56;35.70;;;21.25;;
10497;SDS011;5296;51.060;13.750;2024-01-06T15:06:58;33.53;;;21.00;;
10497;SDS011;5296;51.060;13.750;2024-01-06T15:12:00;32.60;;;21.03;;
10497;SDS011;5296;51.060;13.750;2024-01-06T15:17:02;37.35;;;21.73;;
10497;SDS011;5296;51.060;13.750;2024-01-06T15:22:04;38.33;;;23.23;;
10497;SDS011;5296;51.060;13.750;2024-01-06T15:27:06;41.23;;;22.73;;
10497;SDS011;5296;51.060;13.750;2024-01-06T15:32:07;35.13;;;23.20;;
10497;SDS011;5296;51.060;13.750;2024-01-06T15:37:09;34.27;;;20.47;;
10497;SDS011;5296;51.060;13.750;2024-01-06T15:42:11;30.15;;;19.90;;
10497;SDS011;5296;51.060;13.750;2024-01-06T15:47:13;33.00;;;20.97;;
10497;SDS011;5296;51.060;13.750;2024-01-06T15:52:14;34.40;;;20.87;;
10497;SDS011;5296;51.060;13.750;2024-01-06T15:57:16;35.20;;;22.13;;
10497;SDS011;5296;51.060;13.750;2024-01-06T16:02:18;32.37;;;21.17;;
10497;SDS011;5296;51.060;13.750;2024-01-06T16:07:20;35.90;;;21.97;;
10497;SDS011;5296;51.060;13.750;2024-01-06T16:12:24;34.37;;;22.20;;
10497;SDS011;5296;51.060;13.750;2024-01-06T16:17:30;38.17;;;24.53;;
10497;SDS011;5296;51.060;13.750;2024-01-06T16:22:31;38.80;;;24.07;;
10497;SDS011;5296;51.060;13.750;2024-01-06T16:27:33;40.30;;;25.00;;
10497;SDS011;5296;51.060;13.750;2024-01-06T16:32:35;41.33;;;25.07;;
10497;SDS011;5296;51.060;13.750;2024-01-06T16:37:37;41.30;;;24.00;;
10497;SDS011;5296;51.060;13.750;2024-01-06T16:42:39;41.50;;;24.43;;
10497;SDS011;5296;51.060;13.750;2024-01-06T16:47:41;44.53;;;26.30;;
10497;SDS011;5296;51.060;13.750;2024-01-06T16:52:42;44.70;;;25.88;;
10497;SDS011;5296;51.060;13.750;2024-01-06T16:57:44;42.47;;;25.40;;
10497;SDS011;5296;51.060;13.750;2024-01-06T17:02:46;40.27;;;25.37;;
10497;SDS011;5296;51.060;13.750;2024-01-06T17:07:48;44.72;;;26.30;;
10497;SDS011;5296;51.060;13.750;2024-01-06T17:12:49;43.83;;;25.17;;
10497;SDS011;5296;51.060;13.750;2024-01-06T17:17:51;48.20;;;27.13;;
10497;SDS011;5296;51.060;13.750;2024-01-06T17:22:53;48.47;;;27.50;;
10497;SDS011;5296;51.060;13.750;2024-01-06T17:27:55;46.07;;;26.90;;
10497;SDS011;5296;51.060;13.750;2024-01-06T17:32:57;44.65;;;27.10;;
10497;SDS011;5296;51.060;13.750;2024-01-06T17:37:59;36.80;;;23.93;;
10497;SDS011;5296;51.060;13.750;2024-01-06T17:43:00;46.45;;;28.17;;
10497;SDS011;5296;51.060;13.750;2024-01-06T17:48:02;49.53;;;28.93;;
10497;SDS011;5296;51.060;13.750;2024-01-06T17:53:04;53.80;;;29.53;;
10497;SDS011;5296;51.060;13.750;2024-01-06T17:58:07;50.88;;;29.25;;
10497;SDS011;5296;51.060;13.750;2024-01-06T18:03:09;47.17;;;29.07;;
10497;SDS011;5296;51.060;13.750;2024-01-06T18:08:10;55.73;;;30.07;;
10497;SDS011;5296;51.060;13.750;2024-01-06T18:13:12;46.93;;;28.67;;
10497;SDS011;5296;51.060;13.750;2024-01-06T18:18:14;50.20;;;30.00;;
10497;SDS011;5296;51.060;13.750;2024-01-06T18:23:15;50.03;;;30.77;;
10497;SDS011;5296;51.060;13.750;2024-01-06T18:28:18;46.23;;;29.17;;
10497;SDS011;5296;51.060;13.750;2024-01-06T18:33:25;51.83;;;29.63;;
10497;SDS011;5296;51.060;13.750;2024-01-06T18:38:27;47.30;;;29.07;;
10497;SDS011;5296;51.060;13.750;2024-01-06T18:43:29;47.70;;;28.73;;
10497;SDS011;5296;51.060;13.750;2024-01-06T18:48:31;44.23;;;29.10;;
10497;SDS011;5296;51.060;13.750;2024-01-06T18:53:33;46.23;;;28.17;;
10497;SDS011;5296;51.060;13.750;2024-01-06T18:58:37;49.87;;;28.20;;
10497;SDS011;5296;51.060;13.750;2024-01-06T19:03:38;45.63;;;26.33;;
10497;SDS011;5296;51.060;13.750;2024-01-06T19:08:44;46.03;;;26.83;;
10497;SDS011;5296;51.060;13.750;2024-01-06T19:13:46;50.53;;;27.00;;
10497;SDS011;5296;51.060;13.750;2024-01-06T19:18:48;41.27;;;23.73;;
10497;SDS011;5296;51.060;13.750;2024-01-06T19:23:50;42.77;;;23.50;;
10497;SDS011;5296;51.060;13.750;2024-01-06T19:28:51;33.27;;;20.87;;
10497;SDS011;5296;51.060;13.750;2024-01-06T19:33:53;32.70;;;19.83;;
10497;SDS011;5296;51.060;13.750;2024-01-06T19:38:55;31.37;;;20.57;;
10497;SDS011;5296;51.060;13.750;2024-01-06T19:43:57;34.00;;;21.30;;
10497;SDS011;5296;51.060;13.750;2024-01-06T19:49:02;30.53;;;20.57;;
10497;SDS011;5296;51.060;13.750;2024-01-06T19:54:04;34.50;;;22.20;;
10497;SDS011;5296;51.060;13.750;2024-01-06T19:59:09;37.20;;;22.03;;
10497;SDS011;5296;51.060;13.750;2024-01-06T20:04:13;34.10;;;21.60;;
10497;SDS011;5296;51.060;13.750;2024-01-06T20:09:15;34.00;;;21.70;;
10497;SDS011;5296;51.060;13.750;2024-01-06T20:14:16;35.60;;;22.03;;
10497;SDS011;5296;51.060;13.750;2024-01-06T20:19:18;39.17;;;23.73;;
10497;SDS011;5296;51.060;13.750;2024-01-06T20:24:20;38.60;;;24.30;;
10497;SDS011;5296;51.060;13.750;2024-01-06T20:29:22;37.70;;;23.13;;
10497;SDS011;5296;51.060;13.750;2024-01-06T20:34:24;39.23;;;22.87;;
10497;SDS011;5296;51.060;13.750;2024-01-06T20:39:26;39.30;;;24.43;;
10497;SDS011;5296;51.060;13.750;2024-01-06T20:44:28;38.87;;;23.17;;
10497;SDS011;5296;51.060;13.750;2024-01-06T20:49:29;36.33;;;22.93;;
10497;SDS011;5296;51.060;13.750;2024-01-06T20:54:32;38.00;;;21.67;;
10497;SDS011;5296;51.060;13.750;2024-01-06T20:59:34;31.77;;;20.10;;
10497;SDS011;5296;51.060;13.750;2024-01-06T21:04:35;32.47;;;20.20;;
10497;SDS011;5296;51.060;13.750;2024-01-06T21:09:37;29.17;;;18.90;;
10497;SDS011;5296;51.060;13.750;2024-01-06T21:14:39;33.87;;;19.87;;
10497;SDS011;5296;51.060;13.750;2024-01-06T21:19:40;31.00;;;19.97;;
10497;SDS011;5296;51.060;13.750;2024-01-06T21:24:44;35.90;;;20.60;;
10497;SDS011;5296;51.060;13.750;2024-01-06T21:29:47;32.17;;;21.00;;
10497;SDS011;5296;51.060;13.750;2024-01-06T21:34:49;31.23;;;20.93;;
10497;SDS011;5296;51.060;13.750;2024-01-06T21:39:51;33.97;;;21.13;;
10497;SDS011;5296;51.060;13.750;2024-01-06T21:44:52;32.90;;;20.33;;
10497;SDS011;5296;51.060;13.750;2024-01-06T21:49:55;30.00;;;19.93;;
10497;SDS011;5296;51.060;13.750;2024-01-06T21:54:57;29.90;;;19.27;;
10497;SDS011;5296;51.060;13.750;2024-01-06T21:59:58;30.43;;;20.23;;
10497;SDS011;5296;51.060;13.750;2024-01-06T22:05:04;29.00;;;17.73;;
10497;SDS011;5296;51.060;13.750;2024-01-06T22:10:06;32.30;;;20.10;;
10497;SDS011;5296;51.060;13.750;2024-01-06T22:15:08;26.80;;;18.63;;
10497;SDS011;5296;51.060;13.750;2024-01-06T22:20:11;29.23;;;19.93;;
10497;SDS011;5296;51.060;13.750;2024-01-06T22:25:14;27.07;;;18.27;;
10497;SDS011;5296;51.060;13.750;2024-01-06T22:30:16;26.30;;;17.60;;
10497;SDS011;5296;51.060;13.750;2024-01-06T22:35:18;24.93;;;16.53;;
10497;SDS011;5296;51.060;13.750;2024-01-06T22:40:20;26.20;;;18.30;;
10497;SDS011;5296;51.060;13.750;2024-01-06T22:45:23;23.37;;;16.33;;
10497;SDS011;5296;51.060;13.750;2024-01-06T22:50:26;24.33;;;17.23;;
10497;SDS011;5296;51.060;13.750;2024-01-06T22:55:27;22.00;;;15.70;;
10497;SDS011;5296;51.060;13.750;2024-01-06T23:00:29;19.03;;;14.20;;
10497;SDS011;5296;51.060;13.750;2024-01-06T23:05:37;20.93;;;13.70;;
10497;SDS011;5296;51.060;13.750;2024-01-06T23:10:39;21.37;;;14.97;;
10497;SDS011;5296;51.060;13.750;2024-01-06T23:15:41;18.40;;;14.30;;
10497;SDS011;5296;51.060;13.750;2024-01-06T23:20:43;18.47;;;14.17;;
10497;SDS011;5296;51.060;13.750;2024-01-06T23:25:44;19.07;;;15.17;;
10497;SDS011;5296;51.060;13.750;2024-01-06T23:30:46;19.97;;;14.07;;
10497;SDS011;5296;51.060;13.750;2024-01-06T23:35:49;18.77;;;13.67;;
10497;SDS011;5296;51.060;13.750;2024-01-06T23:40:50;19.03;;;13.70;;
10497;SDS011;5296;51.060;13.750;2024-01-06T23:45:52;18.50;;;12.43;;
10497;SDS011;5296;51.060;13.750;2024-01-06T23:50:54;18.40;;;13.20;;
10497;SDS011;5296;51.060;13.750;2024-01-06T23:55:55;19.30;;;13.20;;
